createdAt,value
2018-12-08T00:00:31.220Z,999.93
2018-12-08T00:01:31.096Z,999.89
2018-12-08T00:02:31.069Z,1000.03
2018-12-08T00:03:31.066Z,999.93
2018-12-08T00:04:31.073Z,1000.04
2018-12-08T00:05:31.056Z,1000.07
2018-12-08T00:06:31.056Z,1000.07
2018-12-08T00:07:31.037Z,1000.05
2018-12-08T00:08:31.051Z,1000.10
2018-12-08T00:09:31.026Z,1000.11
2018-12-08T00:10:31.020Z,1000.15
2018-12-08T00:11:31.014Z,1000.16
2018-12-08T00:12:31.014Z,1000.24
2018-12-08T00:13:31.004Z,1000.20
2018-12-08T00:14:30.993Z,1000.20
2018-12-08T00:15:30.990Z,1000.20
2018-12-08T00:16:30.982Z,1000.15
2018-12-08T00:17:30.968Z,1000.24
2018-12-08T00:18:30.966Z,1000.21
2018-12-08T00:19:30.958Z,1000.16
2018-12-08T00:20:30.955Z,1000.16
2018-12-08T00:21:30.942Z,1000.17
2018-12-08T00:22:30.947Z,1000.26
2018-12-08T00:23:30.932Z,1000.23
2018-12-08T00:24:30.928Z,1000.23
2018-12-08T00:25:30.915Z,1000.19
2018-12-08T00:26:30.946Z,1000.16
2018-12-08T00:27:30.909Z,1000.19
2018-12-08T00:28:30.903Z,1000.21
2018-12-08T00:29:30.887Z,1000.23
2018-12-08T00:30:30.895Z,1000.13
2018-12-08T00:31:30.869Z,1000.11
2018-12-08T00:32:30.864Z,1000.12
2018-12-08T00:33:30.865Z,1000.15
2018-12-08T00:34:30.857Z,1000.21
2018-12-08T00:35:30.858Z,1000.14
2018-12-08T00:36:30.844Z,1000.12
2018-12-08T00:37:30.844Z,1000.15
2018-12-08T00:38:30.828Z,1000.18
2018-12-08T00:39:30.818Z,1000.16
2018-12-08T00:40:30.809Z,1000.21
2018-12-08T00:41:30.803Z,1000.16
2018-12-08T00:42:30.798Z,1000.17
2018-12-08T00:43:30.800Z,1000.26
2018-12-08T00:44:30.779Z,1000.19
2018-12-08T00:45:30.769Z,1000.28
2018-12-08T00:46:30.772Z,1000.30
2018-12-08T00:47:30.761Z,1000.31
2018-12-08T00:48:30.757Z,1000.33
2018-12-08T00:49:39.452Z,1000.28
2018-12-08T00:51:35.263Z,1000.31
2018-12-08T00:52:35.226Z,1000.32
2018-12-08T00:53:35.213Z,1000.30
2018-12-08T00:54:35.201Z,1000.31
2018-12-08T00:55:35.202Z,1000.35
2018-12-08T00:56:35.202Z,1000.33
2018-12-08T00:57:35.173Z,1000.31
2018-12-08T00:58:35.177Z,1000.24
2018-12-08T00:59:35.153Z,1000.25
2018-12-08T01:00:35.156Z,1000.26
2018-12-08T01:01:35.143Z,1000.23
2018-12-08T01:02:35.137Z,1000.20
2018-12-08T01:03:35.144Z,1000.25
2018-12-08T01:04:35.124Z,1000.20
2018-12-08T01:05:35.116Z,1000.21
2018-12-08T01:06:35.102Z,1000.24
2018-12-08T01:07:35.101Z,1000.21
2018-12-08T01:08:35.138Z,1000.27
2018-12-08T01:09:35.100Z,1000.22
2018-12-08T01:10:35.091Z,1000.21
2018-12-08T01:11:35.094Z,1000.25
2018-12-08T01:12:35.056Z,1000.25
2018-12-08T01:13:35.055Z,1000.30
2018-12-08T01:14:35.077Z,1000.27
2018-12-08T01:15:35.050Z,1000.22
2018-12-08T01:16:35.032Z,1000.29
2018-12-08T01:17:35.050Z,1000.29
2018-12-08T01:18:35.024Z,1000.23
2018-12-08T01:19:35.012Z,1000.30
2018-12-08T01:20:35.046Z,1000.31
2018-12-08T01:21:35.003Z,1000.30
2018-12-08T01:22:35.000Z,1000.25
2018-12-08T01:23:35.002Z,1000.29
2018-12-08T01:24:35.055Z,1000.36
2018-12-08T01:25:34.978Z,1000.33
2018-12-08T01:26:34.979Z,1000.34
2018-12-08T01:27:34.957Z,1000.40
2018-12-08T01:28:34.947Z,1000.37
2018-12-08T01:29:34.980Z,1000.29
2018-12-08T01:30:34.933Z,1000.28
2018-12-08T01:31:34.931Z,1000.36
2018-12-08T01:32:34.926Z,1000.40
2018-12-08T01:33:34.908Z,1000.32
2018-12-08T01:34:34.957Z,1000.34
2018-12-08T01:35:34.956Z,1000.43
2018-12-08T01:36:34.897Z,1000.45
2018-12-08T01:37:34.897Z,1000.50
2018-12-08T01:38:34.938Z,1000.44
2018-12-08T01:39:34.875Z,1000.46
2018-12-08T01:40:34.888Z,1000.41
2018-12-08T01:41:36.058Z,1000.41
2018-12-08T01:42:34.848Z,1000.52
2018-12-08T01:43:34.857Z,1000.49
2018-12-08T01:44:34.866Z,1000.44
2018-12-08T01:45:34.824Z,1000.55
2018-12-08T01:46:34.839Z,1000.58
2018-12-08T01:47:34.944Z,1000.54
2018-12-08T01:48:34.806Z,1000.54
2018-12-08T01:49:34.800Z,1000.58
2018-12-08T01:50:34.808Z,1000.60
2018-12-08T01:51:34.797Z,1000.65
2018-12-08T01:52:34.787Z,1000.67
2018-12-08T01:53:34.776Z,1000.62
2018-12-08T01:54:34.771Z,1000.61
2018-12-08T01:55:34.780Z,1000.62
2018-12-08T01:56:34.753Z,1000.58
2018-12-08T01:57:34.821Z,1000.64
2018-12-08T01:58:34.743Z,1000.62
2018-12-08T01:59:34.753Z,1000.65
2018-12-08T02:00:34.723Z,1000.66
2018-12-08T02:01:34.726Z,1000.55
2018-12-08T02:02:34.721Z,1000.72
2018-12-08T02:03:34.791Z,1000.61
2018-12-08T02:04:34.706Z,1000.66
2018-12-08T02:05:34.726Z,1000.63
2018-12-08T02:06:34.689Z,1000.61
2018-12-08T02:07:34.924Z,1000.47
2018-12-08T02:08:34.676Z,1000.55
2018-12-08T02:09:34.665Z,1000.50
2018-12-08T02:10:34.648Z,1000.54
2018-12-08T02:11:34.644Z,1000.51
2018-12-08T02:12:34.653Z,1000.53
2018-12-08T02:13:34.643Z,1000.49
2018-12-08T02:14:34.620Z,1000.62
2018-12-08T02:15:34.609Z,1000.51
2018-12-08T02:16:34.605Z,1000.53
2018-12-08T02:17:34.598Z,1000.47
2018-12-08T02:18:34.601Z,1000.47
2018-12-08T02:19:34.613Z,1000.43
2018-12-08T02:20:34.587Z,1000.53
2018-12-08T02:21:34.571Z,1000.49
2018-12-08T02:22:34.563Z,1000.53
2018-12-08T02:23:34.552Z,1000.49
2018-12-08T02:24:34.576Z,1000.47
2018-12-08T02:25:34.543Z,1000.49
2018-12-08T02:26:34.572Z,1000.39
2018-12-08T02:27:34.552Z,1000.46
2018-12-08T02:28:34.587Z,1000.42
2018-12-08T02:29:34.510Z,1000.47
2018-12-08T02:30:34.524Z,1000.40
2018-12-08T02:31:34.500Z,1000.40
2018-12-08T02:32:34.519Z,1000.45
2018-12-08T02:33:34.483Z,1000.42
2018-12-08T02:34:34.469Z,1000.52
2018-12-08T02:35:34.499Z,1000.55
2018-12-08T02:36:34.461Z,1000.50
2018-12-08T02:37:34.454Z,1000.52
2018-12-08T02:38:34.455Z,1000.51
2018-12-08T02:39:34.435Z,1000.53
2018-12-08T02:40:34.432Z,1000.52
2018-12-08T02:41:34.426Z,1000.52
2018-12-08T02:42:34.422Z,1000.43
2018-12-08T02:43:34.403Z,1000.47
2018-12-08T02:44:34.402Z,1000.43
2018-12-08T02:45:34.405Z,1000.51
2018-12-08T02:46:34.382Z,1000.39
2018-12-08T02:47:34.379Z,1000.39
2018-12-08T02:48:34.410Z,1000.42
2018-12-08T02:49:34.368Z,1000.51
2018-12-08T02:50:34.354Z,1000.46
2018-12-08T02:51:34.344Z,1000.52
2018-12-08T02:52:34.356Z,1000.48
2018-12-08T02:53:34.337Z,1000.54
2018-12-08T02:54:34.324Z,1000.51
2018-12-08T02:55:34.321Z,1000.57
2018-12-08T02:56:34.339Z,1000.47
2018-12-08T03:14:32.574Z,1000.46
2018-12-08T03:15:32.518Z,1000.38
2018-12-08T03:16:32.520Z,1000.42
2018-12-08T03:17:32.515Z,1000.50
2018-12-08T03:18:32.485Z,1000.47
2018-12-08T03:19:32.481Z,1000.52
2018-12-08T03:20:32.477Z,1000.41
2018-12-08T03:21:32.454Z,1000.52
2018-12-08T03:22:32.451Z,1000.47
2018-12-08T03:23:32.475Z,1000.54
2018-12-08T03:24:32.426Z,1000.48
2018-12-08T03:25:32.426Z,1000.39
2018-12-08T03:26:32.426Z,1000.50
2018-12-08T03:27:32.419Z,1000.61
2018-12-08T03:28:32.399Z,1000.53
2018-12-08T03:29:32.405Z,1000.49
2018-12-08T03:30:32.383Z,1000.47
2018-12-08T03:31:32.376Z,1000.47
2018-12-08T03:32:32.376Z,1000.54
2018-12-08T03:33:32.363Z,1000.50
2018-12-08T03:34:32.355Z,1000.60
2018-12-08T03:35:32.338Z,1000.61
2018-12-08T03:36:32.359Z,1000.51
2018-12-08T03:37:32.345Z,1000.59
2018-12-08T03:38:32.323Z,1000.66
2018-12-08T03:39:32.312Z,1000.62
2018-12-08T03:40:32.332Z,1000.60
2018-12-08T03:41:32.303Z,1000.61
2018-12-08T03:42:32.294Z,1000.53
2018-12-08T03:43:32.299Z,1000.56
2018-12-08T03:44:32.298Z,1000.47
2018-12-08T03:45:32.266Z,1000.61
2018-12-08T03:46:32.272Z,1000.65
2018-12-08T03:47:32.251Z,1000.63
2018-12-08T03:48:32.243Z,1000.50
2018-12-08T03:49:32.254Z,1000.66
2018-12-08T03:50:32.232Z,1000.47
2018-12-08T03:51:32.229Z,1000.55
2018-12-08T03:52:32.222Z,1000.67
2018-12-08T03:53:32.202Z,1000.71
2018-12-08T03:54:32.210Z,1000.58
2018-12-08T03:55:32.200Z,1000.67
2018-12-08T03:56:32.187Z,1000.73
2018-12-08T03:57:32.181Z,1000.73
2018-12-08T03:58:32.171Z,1000.76
2018-12-08T03:59:32.173Z,1000.74
2018-12-08T04:00:32.158Z,1000.80
2018-12-08T04:01:32.153Z,1000.73
2018-12-08T04:02:32.156Z,1000.72
2018-12-08T04:03:32.127Z,1000.66
2018-12-08T04:04:32.126Z,1000.75
2018-12-08T04:05:32.117Z,1000.81
2018-12-08T04:06:32.106Z,1000.77
2018-12-08T04:07:32.099Z,1000.91
2018-12-08T04:08:32.094Z,1000.82
2018-12-08T04:09:32.114Z,1000.89
2018-12-08T04:10:32.099Z,1000.88
2018-12-08T04:11:32.070Z,1000.85
2018-12-08T04:12:32.061Z,1000.98
2018-12-08T04:13:32.062Z,1000.92
2018-12-08T04:14:32.055Z,1000.92
2018-12-08T04:15:32.111Z,1000.93
2018-12-08T04:16:32.044Z,1000.77
2018-12-08T04:17:32.050Z,1000.81
2018-12-08T04:18:32.037Z,1000.84
2018-12-08T04:19:32.023Z,1000.84
2018-12-08T04:20:32.025Z,1000.93
2018-12-08T04:21:32.002Z,1000.77
2018-12-08T04:22:31.998Z,1000.95
2018-12-08T04:23:32.011Z,1000.86
2018-12-08T04:24:31.975Z,1000.88
2018-12-08T04:25:31.965Z,1000.82
2018-12-08T04:26:32.038Z,1000.82
2018-12-08T04:27:31.972Z,1000.85
2018-12-08T04:28:31.953Z,1000.86
2018-12-08T04:29:32.003Z,1000.85
2018-12-08T04:30:31.934Z,1000.88
2018-12-08T04:31:31.925Z,1000.77
2018-12-08T04:32:31.949Z,1000.71
2018-12-08T04:33:31.929Z,1000.83
2018-12-08T04:34:31.917Z,1000.73
2018-12-08T04:35:31.896Z,1000.74
2018-12-08T04:36:31.932Z,1000.75
2018-12-08T04:37:31.899Z,1000.62
2018-12-08T04:38:31.896Z,1000.62
2018-12-08T04:39:31.860Z,1000.65
2018-12-08T04:40:31.859Z,1000.68
2018-12-08T04:41:31.850Z,1000.67
2018-12-08T04:42:31.840Z,1000.65
2018-12-08T04:43:31.834Z,1000.59
2018-12-08T04:44:31.826Z,1000.65
2018-12-08T04:45:31.821Z,1000.76
2018-12-08T04:46:31.806Z,1000.68
2018-12-08T04:47:31.801Z,1000.74
2018-12-08T04:48:31.803Z,1000.79
2018-12-08T04:49:31.788Z,1000.73
2018-12-08T04:50:31.774Z,1000.78
2018-12-08T04:51:31.781Z,1000.71
2018-12-08T04:52:31.780Z,1000.71
2018-12-08T04:53:31.854Z,1000.71
2018-12-08T04:54:31.753Z,1000.72
2018-12-08T04:55:31.742Z,1000.67
2018-12-08T04:56:31.731Z,1000.62
2018-12-08T04:57:31.728Z,1000.58
2018-12-08T04:58:31.734Z,1000.56
2018-12-08T04:59:31.744Z,1000.67
2018-12-08T05:00:31.740Z,1000.69
2018-12-08T05:01:31.697Z,1000.66
2018-12-08T05:02:31.702Z,1000.72
2018-12-08T05:03:31.676Z,1000.66
2018-12-08T05:04:31.684Z,1000.73
2018-12-08T05:05:31.664Z,1000.72
2018-12-08T05:06:31.668Z,1000.71
2018-12-08T05:07:31.659Z,1000.68
2018-12-08T05:08:31.659Z,1000.70
2018-12-08T05:09:31.636Z,1000.66
2018-12-08T05:10:31.640Z,1000.76
2018-12-08T05:11:31.637Z,1000.68
2018-12-08T05:12:31.615Z,1000.72
2018-12-08T05:13:31.609Z,1000.73
2018-12-08T05:14:31.616Z,1000.70
2018-12-08T05:15:31.643Z,1000.76
2018-12-08T05:16:31.587Z,1000.74
2018-12-08T05:17:31.582Z,1000.74
2018-12-08T05:18:31.568Z,1000.61
2018-12-08T05:19:31.570Z,1000.67
2018-12-08T05:20:31.566Z,1000.77
2018-12-08T05:21:31.562Z,1000.73
2018-12-08T05:22:31.551Z,1000.76
2018-12-08T05:23:31.563Z,1000.75
2018-12-08T05:24:31.534Z,1000.79
2018-12-08T05:25:31.523Z,1000.78
2018-12-08T05:26:31.537Z,1000.74
2018-12-08T05:27:31.524Z,1000.69
2018-12-08T05:28:31.513Z,1000.69
2018-12-08T05:29:31.538Z,1000.65
2018-12-08T05:30:31.499Z,1000.78
2018-12-08T05:31:31.476Z,1000.79
2018-12-08T05:32:31.490Z,1000.77
2018-12-08T05:33:31.462Z,1000.82
2018-12-08T05:34:31.444Z,1000.73
2018-12-08T05:35:31.473Z,1000.74
2018-12-08T05:36:31.435Z,1000.81
2018-12-08T05:37:31.437Z,1000.80
2018-12-08T05:38:31.434Z,1000.90
2018-12-08T05:39:31.416Z,1000.91
2018-12-08T05:40:31.406Z,1000.83
2018-12-08T05:41:31.399Z,1000.88
2018-12-08T05:42:31.414Z,1000.89
2018-12-08T05:43:31.407Z,1000.91
2018-12-08T05:44:31.370Z,1000.96
2018-12-08T05:45:31.367Z,1000.97
2018-12-08T05:46:31.355Z,1000.88
2018-12-08T05:47:31.346Z,1000.82
2018-12-08T05:48:31.347Z,1000.84
2018-12-08T05:49:31.338Z,1000.87
2018-12-08T05:50:31.326Z,1000.83
2018-12-08T05:51:31.351Z,1000.87
2018-12-08T05:52:31.318Z,1000.74
2018-12-08T05:53:31.319Z,1000.71
2018-12-08T05:54:31.393Z,1000.75
2018-12-08T05:55:31.297Z,1000.84
2018-12-08T05:56:31.306Z,1000.77
2018-12-08T05:57:31.272Z,1000.63
2018-12-08T05:58:31.269Z,1000.76
2018-12-08T05:59:31.264Z,1000.68
2018-12-08T06:00:31.302Z,1000.66
2018-12-08T06:01:31.284Z,1000.64
2018-12-08T06:02:31.237Z,1000.56
2018-12-08T06:03:31.255Z,1000.59
2018-12-08T06:04:31.267Z,1000.63
2018-12-08T06:05:31.211Z,1000.63
2018-12-08T06:06:31.260Z,1000.65
2018-12-08T06:07:31.254Z,1000.61
2018-12-08T06:08:31.247Z,1000.62
2018-12-08T06:09:31.209Z,1000.64
2018-12-08T06:10:31.182Z,1000.62
2018-12-08T06:11:31.191Z,1000.54
2018-12-08T06:12:31.162Z,1000.72
2018-12-08T06:13:31.147Z,1000.63
2018-12-08T06:14:31.177Z,1000.64
2018-12-08T06:15:31.146Z,1000.73
2018-12-08T06:16:31.147Z,1000.81
2018-12-08T06:17:31.125Z,1000.69
2018-12-08T06:18:31.125Z,1000.71
2018-12-08T06:19:31.101Z,1000.71
2018-12-08T06:20:31.136Z,1000.61
2018-12-08T06:21:31.102Z,1000.60
2018-12-08T06:22:31.125Z,1000.56
2018-12-08T06:23:31.099Z,1000.57
2018-12-08T06:24:31.072Z,1000.58
2018-12-08T06:25:31.090Z,1000.61
2018-12-08T06:26:31.065Z,1000.58
2018-12-08T06:27:31.042Z,1000.53
2018-12-08T06:28:31.041Z,1000.62
2018-12-08T06:29:31.042Z,1000.54
2018-12-08T06:30:31.024Z,1000.64
2018-12-08T06:31:31.063Z,1000.57
2018-12-08T06:32:31.015Z,1000.55
2018-12-08T06:33:31.006Z,1000.51
2018-12-08T06:34:39.766Z,1000.59
2018-12-08T06:36:36.016Z,1000.57
2018-12-08T06:37:35.474Z,1000.45
2018-12-08T06:38:35.483Z,1000.53
2018-12-08T06:39:35.462Z,1000.43
2018-12-08T06:40:45.031Z,1000.45
2018-12-08T06:42:40.438Z,1000.31
2018-12-08T06:43:39.913Z,1000.35
2018-12-08T06:44:40.223Z,1000.41
2018-12-08T06:45:39.882Z,1000.34
2018-12-08T06:46:39.883Z,1000.31
2018-12-08T06:47:39.873Z,1000.43
2018-12-08T06:48:39.894Z,1000.29
2018-12-08T06:49:50.407Z,1000.34
2018-12-08T06:51:44.346Z,1000.29
2018-12-08T06:52:44.316Z,1000.31
2018-12-08T06:53:44.313Z,1000.40
2018-12-08T06:54:44.304Z,1000.42
2018-12-08T06:55:44.304Z,1000.40
2018-12-08T06:56:44.284Z,1000.25
2018-12-08T06:57:44.281Z,1000.39
2018-12-08T06:58:44.273Z,1000.37
2018-12-08T06:59:44.272Z,1000.15
2018-12-08T07:00:44.253Z,1000.27
2018-12-08T07:01:44.275Z,1000.26
2018-12-08T07:02:44.241Z,1000.22
2018-12-08T07:03:44.240Z,1000.24
2018-12-08T07:04:44.230Z,1000.14
2018-12-08T07:05:44.216Z,1000.19
2018-12-08T07:06:44.211Z,1000.16
2018-12-08T07:07:44.199Z,1000.16
2018-12-08T07:08:44.208Z,1000.24
2018-12-08T07:09:44.185Z,1000.12
2018-12-08T07:10:44.176Z,1000.19
2018-12-08T07:11:44.171Z,1000.24
2018-12-08T07:12:44.164Z,1000.14
2018-12-08T07:13:44.155Z,1000.23
2018-12-08T07:14:44.150Z,1000.17
2018-12-08T07:15:44.140Z,1000.13
2018-12-08T07:16:44.238Z,1000.05
2018-12-08T07:17:44.125Z,1000.03
2018-12-08T07:18:44.116Z,999.96
2018-12-08T07:19:44.107Z,999.98
2018-12-08T07:20:44.126Z,1000.00
2018-12-08T07:21:44.111Z,999.98
2018-12-08T07:22:44.101Z,999.87
2018-12-08T07:23:44.094Z,1000.02
2018-12-08T07:24:44.069Z,999.94
2018-12-08T07:25:44.065Z,999.95
2018-12-08T07:26:44.058Z,999.97
2018-12-08T07:27:44.044Z,999.96
2018-12-08T07:28:44.044Z,1000.00
2018-12-08T07:29:44.027Z,999.96
2018-12-08T07:30:44.101Z,999.84
2018-12-08T07:31:44.025Z,999.81
2018-12-08T07:32:44.017Z,999.82
2018-12-08T07:33:43.995Z,999.83
2018-12-08T07:34:44.006Z,999.78
2018-12-08T07:35:44.003Z,999.78
2018-12-08T07:36:43.972Z,999.79
2018-12-08T07:37:43.960Z,999.85
2018-12-08T07:38:43.964Z,999.67
2018-12-08T07:39:43.979Z,999.71
2018-12-08T07:40:43.951Z,999.69
2018-12-08T07:41:43.967Z,999.75
2018-12-08T07:42:43.927Z,999.63
2018-12-08T07:43:43.917Z,999.72
2018-12-08T07:44:43.913Z,999.71
2018-12-08T07:45:43.904Z,999.67
2018-12-08T07:46:43.896Z,999.63
2018-12-08T07:47:43.884Z,999.72
2018-12-08T07:48:43.876Z,999.72
2018-12-08T07:49:43.870Z,999.51
2018-12-08T07:50:43.857Z,999.72
2018-12-08T07:51:43.850Z,999.73
2018-12-08T07:52:43.840Z,999.74
2018-12-08T07:53:43.838Z,999.70
2018-12-08T07:54:43.829Z,999.65
2018-12-08T07:55:43.814Z,999.80
2018-12-08T07:56:43.812Z,999.87
2018-12-08T07:57:52.459Z,999.90
2018-12-08T07:59:48.323Z,999.85
2018-12-08T08:00:57.773Z,999.95
2018-12-08T08:02:52.759Z,1000.02
2018-12-08T08:03:52.745Z,999.98
2018-12-08T08:04:52.755Z,999.98
2018-12-08T08:05:52.713Z,1000.01
2018-12-08T08:06:52.707Z,1000.08
2018-12-08T08:07:52.708Z,1000.01
2018-12-08T08:08:52.688Z,999.99
2018-12-08T08:09:52.692Z,999.96
2018-12-08T08:10:52.669Z,999.86
2018-12-08T08:11:52.661Z,1000.04
2018-12-08T08:12:52.656Z,1000.00
2018-12-08T08:13:52.641Z,999.99
2018-12-08T08:14:52.632Z,999.94
2018-12-08T08:15:52.637Z,1000.22
2018-12-08T08:16:52.633Z,999.97
2018-12-08T08:17:52.615Z,1000.12
2018-12-08T08:18:52.608Z,1000.03
2018-12-08T08:19:52.597Z,1000.19
2018-12-08T08:20:52.596Z,1000.04
2018-12-08T08:21:52.586Z,1000.12
2018-12-08T08:22:52.583Z,1000.16
2018-12-08T08:23:52.626Z,1000.10
2018-12-08T08:25:01.744Z,1000.10
2018-12-08T08:26:57.077Z,1000.04
2018-12-08T08:28:06.526Z,1000.06
2018-12-08T08:30:02.571Z,1000.14
2018-12-08T08:31:11.989Z,1000.01
2018-12-08T08:33:07.000Z,1000.07
2018-12-08T08:34:06.988Z,1000.06
2018-12-08T08:35:06.961Z,1000.11
2018-12-08T08:36:06.975Z,1000.00
2018-12-08T08:37:06.957Z,999.97
2018-12-08T08:38:06.931Z,999.99
2018-12-08T08:39:06.947Z,999.97
2018-12-08T08:40:06.938Z,999.95
2018-12-08T08:41:06.923Z,999.88
2018-12-08T08:42:06.914Z,999.87
2018-12-08T08:43:06.890Z,999.97
2018-12-08T08:44:06.910Z,999.82
2018-12-08T08:45:06.992Z,999.89
2018-12-08T08:46:06.980Z,999.96
2018-12-08T08:47:06.893Z,999.89
2018-12-08T08:48:06.890Z,999.90
2018-12-08T08:49:06.860Z,999.89
2018-12-08T08:50:06.839Z,999.86
2018-12-08T08:51:06.829Z,999.93
2018-12-08T08:52:06.832Z,999.89
2018-12-08T08:53:06.813Z,999.89
2018-12-08T08:54:06.837Z,999.83
2018-12-08T08:55:06.847Z,999.82
2018-12-08T08:56:06.795Z,999.88
2018-12-08T08:57:06.796Z,999.86
2018-12-08T08:58:06.777Z,999.78
2018-12-08T08:59:06.799Z,999.89
2018-12-08T09:00:06.758Z,999.84
2018-12-08T09:01:06.768Z,999.95
2018-12-08T09:02:06.748Z,999.76
2018-12-08T09:03:06.806Z,999.89
2018-12-08T09:04:06.728Z,999.93
2018-12-08T09:05:06.716Z,999.79
2018-12-08T09:06:06.721Z,999.88
2018-12-08T09:07:06.719Z,999.92
2018-12-08T09:08:06.703Z,999.86
2018-12-08T09:09:06.715Z,999.91
2018-12-08T09:10:06.704Z,999.89
2018-12-08T09:11:06.702Z,999.88
2018-12-08T09:12:06.686Z,999.87
2018-12-08T09:13:06.659Z,999.89
2018-12-08T09:14:13.224Z,999.90
2018-12-08T09:15:06.659Z,999.79
2018-12-08T09:16:06.651Z,999.85
2018-12-08T09:17:06.637Z,999.89
2018-12-08T09:18:06.680Z,999.82
2018-12-08T09:19:06.666Z,999.98
2018-12-08T09:20:06.604Z,999.93
2018-12-08T09:21:06.594Z,999.73
2018-12-08T09:22:06.616Z,999.80
2018-12-08T09:23:06.584Z,999.87
2018-12-08T09:24:06.576Z,1000.00
2018-12-08T09:25:06.567Z,1000.00
2018-12-08T09:26:06.556Z,1000.09
2018-12-08T09:27:06.546Z,1000.02
2018-12-08T09:28:06.542Z,1000.07
2018-12-08T09:29:06.541Z,1000.02
2018-12-08T09:30:06.616Z,1000.18
2018-12-08T09:31:06.558Z,1000.13
2018-12-08T09:32:06.508Z,1000.16
2018-12-08T09:33:06.506Z,1000.14
2018-12-08T09:34:06.494Z,1000.06
2018-12-08T09:35:06.498Z,1000.09
2018-12-08T09:36:06.485Z,1000.04
2018-12-08T09:37:06.486Z,1000.15
2018-12-08T09:38:06.459Z,1000.14
2018-12-08T09:39:06.465Z,1000.12
2018-12-08T09:40:06.459Z,1000.07
2018-12-08T09:41:06.446Z,1000.06
2018-12-08T09:42:06.440Z,1000.02
2018-12-08T09:43:06.426Z,1000.09
2018-12-08T09:44:06.418Z,1000.09
2018-12-08T09:45:06.410Z,1000.10
2018-12-08T09:46:06.400Z,1000.01
2018-12-08T09:47:06.401Z,1000.09
2018-12-08T09:48:06.412Z,1000.11
2018-12-08T09:49:06.378Z,1000.10
2018-12-08T09:50:06.371Z,1000.11
2018-12-08T09:51:06.413Z,1000.13
2018-12-08T09:52:06.379Z,1000.12
2018-12-08T09:53:06.352Z,1000.13
2018-12-08T09:54:06.354Z,1000.05
2018-12-08T09:55:06.341Z,1000.03
2018-12-08T09:56:06.333Z,1000.12
2018-12-08T09:57:06.313Z,1000.23
2018-12-08T09:58:06.305Z,1000.07
2018-12-08T09:59:06.304Z,1000.12
2018-12-08T10:00:06.298Z,1000.20
2018-12-08T10:01:06.293Z,1000.10
2018-12-08T10:02:06.279Z,1000.21
2018-12-08T10:03:06.268Z,1000.33
2018-12-08T10:04:06.271Z,1000.25
2018-12-08T10:05:06.270Z,1000.16
2018-12-08T10:06:06.252Z,1000.26
2018-12-08T10:07:06.243Z,1000.18
2018-12-08T10:08:06.235Z,1000.04
2018-12-08T10:09:06.218Z,1000.19
2018-12-08T10:10:06.222Z,1000.10
2018-12-08T10:11:06.203Z,1000.10
2018-12-08T10:12:06.196Z,999.99
2018-12-08T10:13:06.193Z,999.96
2018-12-08T10:14:06.180Z,999.99
2018-12-08T10:15:06.182Z,1000.07
2018-12-08T10:16:06.179Z,1000.07
2018-12-08T10:17:06.160Z,1000.03
2018-12-08T10:18:06.251Z,999.97
2018-12-08T10:19:06.167Z,999.99
2018-12-08T10:20:06.140Z,999.94
2018-12-08T10:21:06.126Z,999.91
2018-12-08T10:22:06.128Z,999.90
2018-12-08T10:23:06.115Z,999.96
2018-12-08T10:24:06.103Z,999.83
2018-12-08T10:25:06.096Z,999.93
2018-12-08T10:26:06.092Z,999.81
2018-12-08T10:27:06.090Z,999.75
2018-12-08T10:28:06.078Z,999.71
2018-12-08T10:29:06.064Z,999.81
2018-12-08T10:30:06.066Z,999.80
2018-12-08T10:31:06.052Z,999.77
2018-12-08T10:32:06.066Z,999.83
2018-12-08T10:33:06.042Z,999.84
2018-12-08T10:34:06.033Z,999.83
2018-12-08T10:35:06.028Z,999.79
2018-12-08T10:36:06.006Z,999.80
2018-12-08T10:37:06.005Z,999.83
2018-12-08T10:38:06.006Z,999.85
2018-12-08T10:39:05.992Z,999.75
2018-12-08T10:40:05.985Z,999.74
2018-12-08T10:41:05.981Z,999.72
2018-12-08T10:42:05.967Z,999.64
2018-12-08T10:43:05.956Z,999.76
2018-12-08T10:44:05.948Z,999.74
2018-12-08T10:45:05.943Z,999.65
2018-12-08T10:46:05.934Z,999.70
2018-12-08T10:47:05.919Z,999.75
2018-12-08T10:48:05.922Z,999.59
2018-12-08T10:49:05.908Z,999.55
2018-12-08T10:50:05.921Z,999.56
2018-12-08T10:51:05.888Z,999.50
2018-12-08T10:52:05.886Z,999.51
2018-12-08T10:53:05.878Z,999.51
2018-12-08T10:54:05.894Z,999.67
2018-12-08T10:55:05.862Z,999.56
2018-12-08T10:56:05.866Z,999.59
2018-12-08T10:57:15.562Z,999.61
2018-12-08T10:59:10.356Z,999.55
2018-12-08T11:00:10.324Z,999.54
2018-12-08T11:01:10.308Z,999.55
2018-12-08T11:02:10.369Z,999.52
2018-12-08T11:03:17.972Z,999.46
2018-12-08T11:05:15.008Z,999.43
2018-12-08T11:06:16.878Z,999.45
2018-12-08T11:07:14.886Z,999.46
2018-12-08T11:08:14.883Z,999.33
2018-12-08T11:09:14.925Z,999.33
2018-12-08T11:10:14.882Z,999.42
2018-12-08T11:11:14.857Z,999.34
2018-12-08T11:12:14.845Z,999.42
2018-12-08T11:13:14.838Z,999.44
2018-12-08T11:14:14.829Z,999.53
2018-12-08T11:15:14.836Z,999.49
2018-12-08T11:16:14.819Z,999.42
2018-12-08T11:17:14.809Z,999.46
2018-12-08T11:18:14.801Z,999.40
2018-12-08T11:19:14.787Z,999.40
2018-12-08T11:20:14.786Z,999.36
2018-12-08T11:21:14.797Z,999.27
2018-12-08T11:22:14.813Z,999.31
2018-12-08T11:23:14.804Z,999.31
2018-12-08T11:24:14.748Z,999.37
2018-12-08T11:25:14.766Z,999.35
2018-12-08T11:26:14.753Z,999.38
2018-12-08T11:27:14.725Z,999.45
2018-12-08T11:28:14.735Z,999.44
2018-12-08T11:29:14.741Z,999.41
2018-12-08T11:30:14.794Z,999.36
2018-12-08T11:31:14.716Z,999.31
2018-12-08T11:32:14.689Z,999.28
2018-12-08T11:33:14.717Z,999.33
2018-12-08T11:34:14.677Z,999.31
2018-12-08T11:35:14.694Z,999.35
2018-12-08T11:36:14.666Z,999.39
2018-12-08T11:37:14.676Z,999.35
2018-12-08T11:38:14.751Z,999.38
2018-12-08T11:39:14.647Z,999.38
2018-12-08T11:40:14.698Z,999.38
2018-12-08T11:41:14.720Z,999.42
2018-12-08T11:42:14.615Z,999.39
2018-12-08T11:43:14.618Z,999.40
2018-12-08T11:44:14.621Z,999.46
2018-12-08T11:45:14.611Z,999.46
2018-12-08T11:46:14.717Z,999.43
2018-12-08T11:47:14.641Z,999.42
2018-12-08T11:48:14.798Z,999.42
2018-12-08T11:49:14.555Z,999.47
2018-12-08T11:50:14.550Z,999.39
2018-12-08T11:51:14.546Z,999.40
2018-12-08T11:52:14.547Z,999.45
2018-12-08T11:53:14.586Z,999.45
2018-12-08T11:54:14.551Z,999.57
2018-12-08T11:55:14.558Z,999.52
2018-12-08T11:56:14.508Z,999.51
2018-12-08T11:57:14.513Z,999.39
2018-12-08T11:58:14.493Z,999.50
2018-12-08T11:59:14.512Z,999.50
2018-12-08T12:00:14.516Z,999.46
2018-12-08T12:01:14.530Z,999.49
2018-12-08T12:02:16.669Z,999.51
2018-12-08T12:03:14.457Z,999.51
2018-12-08T12:04:14.436Z,999.49
2018-12-08T12:05:14.436Z,999.50
2018-12-08T12:06:14.425Z,999.50
2018-12-08T12:07:14.425Z,999.47
2018-12-08T12:08:14.406Z,999.48
2018-12-08T12:09:14.408Z,999.53
2018-12-08T12:10:14.396Z,999.50
2018-12-08T12:11:14.391Z,999.48
2018-12-08T12:12:14.409Z,999.48
2018-12-08T12:13:14.371Z,999.42
2018-12-08T12:14:14.384Z,999.33
2018-12-08T12:15:14.370Z,999.22
2018-12-08T12:16:14.356Z,999.26
2018-12-08T12:17:14.349Z,999.24
2018-12-08T12:18:14.354Z,999.16
2018-12-08T12:19:14.361Z,999.15
2018-12-08T12:20:14.364Z,999.15
2018-12-08T12:21:14.311Z,999.02
2018-12-08T12:22:14.313Z,999.21
2018-12-08T12:23:14.295Z,999.12
2018-12-08T12:24:14.287Z,999.16
2018-12-08T12:25:14.400Z,999.02
2018-12-08T12:26:14.378Z,999.09
2018-12-08T12:27:14.275Z,999.16
2018-12-08T12:28:14.256Z,999.15
2018-12-08T12:29:14.288Z,999.21
2018-12-08T12:30:14.257Z,999.16
2018-12-08T12:31:14.243Z,999.17
2018-12-08T12:32:14.293Z,999.23
2018-12-08T12:33:14.238Z,999.18
2018-12-08T12:34:14.225Z,999.14
2018-12-08T12:35:14.222Z,999.15
2018-12-08T12:36:14.206Z,999.16
2018-12-08T12:37:14.187Z,999.06
2018-12-08T12:38:14.190Z,999.07
2018-12-08T12:39:14.199Z,999.10
2018-12-08T12:40:14.176Z,999.13
2018-12-08T12:41:14.369Z,999.07
2018-12-08T12:42:14.170Z,999.09